createdAt,value
2018-11-20T00:01:29.481Z,96836.46
2018-11-20T00:04:37.968Z,96787.41
2018-11-20T00:07:32.438Z,96823.55
2018-11-20T00:10:40.907Z,96829.30
2018-11-20T00:13:44.771Z,96830.67
2018-11-20T00:19:50.193Z,96818.30
2018-11-20T00:22:51.404Z,96811.36
2018-11-20T00:28:57.161Z,96813.05
2018-11-20T00:32:04.326Z,96815.44
2018-11-20T00:35:12.821Z,96809.88
2018-11-20T00:38:13.742Z,96787.75
2018-11-20T00:41:22.218Z,96811.73
2018-11-20T00:44:23.510Z,96778.66
2018-11-20T00:47:25.017Z,96749.54
2018-11-20T00:50:33.534Z,96792.05
2018-11-20T00:53:34.845Z,96750.08
2018-11-20T00:57:02.370Z,96817.75
2018-11-20T00:59:51.499Z,96766.59
2018-11-20T01:02:41.155Z,96771.27
2018-11-20T01:05:30.692Z,96794.67
2018-11-20T01:08:35.103Z,96802.04
2018-11-20T01:11:43.606Z,96801.07
2018-11-20T01:14:52.092Z,96797.30
2018-11-20T01:17:32.505Z,96755.45
2018-11-20T01:20:41.022Z,96790.91
2018-11-20T01:23:49.523Z,96791.65
2018-11-20T01:26:32.137Z,96781.55
2018-11-20T01:29:34.294Z,96771.67
2018-11-20T01:38:39.742Z,96754.58
2018-11-20T01:41:39.004Z,96752.43
2018-11-20T01:44:33.554Z,96756.50
2018-11-20T01:47:23.054Z,96760.47
2018-11-20T01:50:31.537Z,96761.34
2018-11-20T01:56:34.060Z,96770.99
2018-11-20T01:59:35.499Z,96769.45
2018-11-20T02:02:27.707Z,96763.97
2018-11-20T02:05:33.213Z,96759.26
2018-11-20T02:08:41.715Z,96725.97
2018-11-20T02:11:39.119Z,96744.96
2018-11-20T02:14:42.006Z,96735.55
2018-11-20T02:17:31.014Z,96730.00
2018-11-20T02:23:31.201Z,96735.48
2018-11-20T02:29:47.419Z,96739.98
2018-11-20T02:32:32.282Z,96735.25
2018-11-20T02:35:40.794Z,96729.86
2018-11-20T02:38:41.623Z,96726.47
2018-11-20T02:41:40.517Z,96722.57
2018-11-20T02:44:42.087Z,96722.91
2018-11-20T02:53:36.306Z,96716.58
2018-11-20T02:56:25.764Z,96711.58
2018-11-20T03:05:36.655Z,96721.59
2018-11-20T03:08:37.335Z,96717.16
2018-11-20T03:11:45.815Z,96716.35
2018-11-20T03:14:41.109Z,96713.39
2018-11-20T03:17:49.598Z,96713.23
2018-11-20T03:20:39.069Z,96710.47
2018-11-20T03:23:47.535Z,96723.98
2018-11-20T03:26:26.870Z,96721.83
2018-11-20T03:30:16.125Z,96722.00
2018-11-20T03:33:22.852Z,96697.61
2018-11-20T03:36:31.348Z,96723.31
2018-11-20T03:39:32.475Z,96721.39
2018-11-20T03:42:21.968Z,96711.41
2018-11-20T03:45:30.448Z,96723.17
2018-11-20T03:48:31.492Z,96693.16
2018-11-20T03:51:39.966Z,96668.48
2018-11-20T03:54:33.457Z,96713.80
2018-11-20T03:57:34.019Z,96706.90
2018-11-20T04:00:16.727Z,96704.18
2018-11-20T04:03:25.280Z,96705.63
2018-11-20T04:06:33.774Z,96707.74
2018-11-20T04:09:35.197Z,96705.05
2018-11-20T04:12:25.320Z,96704.31
2018-11-20T04:15:33.812Z,96692.88
2018-11-20T04:18:32.200Z,96684.95
2018-11-20T04:21:32.909Z,96690.90
2018-11-20T04:24:33.919Z,96690.27
2018-11-20T04:27:42.409Z,96690.39
2018-11-20T04:31:15.984Z,96694.03
2018-11-20T04:34:15.206Z,96692.08
2018-11-20T04:37:01.646Z,96658.50
2018-11-20T04:43:00.504Z,96695.14
2018-11-20T04:46:08.970Z,96690.40
2018-11-20T04:49:09.813Z,96683.84
2018-11-20T04:51:46.796Z,96687.77
2018-11-20T04:54:55.262Z,96681.36
2018-11-20T04:58:03.784Z,96686.97
2018-11-20T05:01:05.069Z,96660.92
2018-11-20T05:04:13.550Z,96675.61
2018-11-20T05:07:03.076Z,96673.62
2018-11-20T05:09:49.441Z,96681.59
2018-11-20T05:12:57.940Z,96676.18
2018-11-20T05:15:39.995Z,96683.47
2018-11-20T05:18:47.868Z,96676.92
2018-11-20T05:21:37.343Z,96689.66
2018-11-20T05:24:29.165Z,96678.46
2018-11-20T05:27:26.505Z,96684.52
2018-11-20T05:30:17.402Z,96674.53
2018-11-20T05:33:25.899Z,96678.80
2018-11-20T05:36:27.303Z,96674.83
2018-11-20T05:39:08.620Z,96673.45
2018-11-20T05:41:54.382Z,96675.20
2018-11-20T05:45:02.900Z,96677.66
2018-11-20T05:47:52.395Z,96676.55
2018-11-20T05:51:00.913Z,96679.64
2018-11-20T05:54:09.432Z,96688.24
2018-11-20T05:56:58.514Z,96691.57
2018-11-20T06:03:02.368Z,96697.77
2018-11-20T06:05:58.241Z,96683.64
2018-11-20T06:08:47.729Z,96686.86
2018-11-20T06:11:56.226Z,96687.23
2018-11-20T06:14:57.608Z,96688.27
2018-11-20T06:17:49.778Z,96692.64
2018-11-20T06:20:58.284Z,96691.53
2018-11-20T06:23:47.778Z,96655.04
2018-11-20T06:26:35.620Z,96691.53
2018-11-20T06:29:31.227Z,96690.93
2018-11-20T06:32:23.624Z,96688.77
2018-11-20T06:35:13.142Z,96693.15
2018-11-20T06:38:02.630Z,96691.44
2018-11-20T06:40:52.294Z,96694.66
2018-11-20T06:43:41.773Z,96689.47
2018-11-20T06:46:49.473Z,96684.11
2018-11-20T06:49:58.008Z,96685.28
2018-11-20T06:52:59.493Z,96695.91
2018-11-20T06:58:33.976Z,96707.80
2018-11-20T07:04:28.409Z,96716.80
2018-11-20T07:07:18.391Z,96718.02
2018-11-20T07:10:27.074Z,96716.61
2018-11-20T07:13:31.099Z,96724.20
2018-11-20T07:16:59.514Z,96717.95
2018-11-20T07:19:57.819Z,96722.02
2018-11-20T07:22:47.402Z,96713.51
2018-11-20T07:28:35.122Z,96713.38
2018-11-20T07:31:29.533Z,96712.50
2018-11-20T07:37:37.632Z,96706.37
2018-11-20T07:40:28.400Z,96707.48
2018-11-20T07:43:17.946Z,96710.10
2018-11-20T07:46:07.406Z,96712.56
2018-11-20T07:49:15.862Z,96715.71
2018-11-20T07:52:17.995Z,96710.84
2018-11-20T07:55:06.130Z,96709.39
2018-11-20T07:57:57.676Z,96711.80
2018-11-20T08:00:45.779Z,96699.78
2018-11-20T08:03:35.254Z,96694.66
2018-11-20T08:06:39.929Z,96699.17
2018-11-20T08:09:48.519Z,96692.92
2018-11-20T08:12:57.008Z,96699.33
2018-11-20T08:15:46.584Z,96652.14
2018-11-20T08:21:31.471Z,96693.27
2018-11-20T08:24:39.971Z,96685.70
2018-11-20T08:27:38.017Z,96682.97
2018-11-20T08:30:46.485Z,96675.77
2018-11-20T08:33:50.950Z,96620.01
2018-11-20T08:36:37.391Z,96668.28
2018-11-20T08:39:27.439Z,96675.70
2018-11-20T08:42:14.657Z,96679.92
2018-11-20T08:45:04.031Z,96679.64
2018-11-20T08:47:52.354Z,96672.22
2018-11-20T08:51:00.096Z,96678.70
2018-11-20T08:53:52.553Z,96681.69
2018-11-20T08:56:42.072Z,96683.80
2018-11-20T08:59:31.562Z,96688.41
2018-11-20T09:02:40.088Z,96686.36
2018-11-20T09:05:36.324Z,96699.11
2018-11-20T09:08:16.699Z,96696.40
2018-11-20T09:11:06.218Z,96702.70
2018-11-20T09:13:50.116Z,96696.53
2018-11-20T09:16:39.565Z,96694.42
2018-11-20T09:19:27.431Z,96703.26
2018-11-20T09:22:17.022Z,96699.27
2018-11-20T09:25:25.509Z,96696.45
2018-11-20T09:28:11.227Z,96694.42
2018-11-20T09:31:22.530Z,96691.73
2018-11-20T09:34:10.804Z,96697.16
2018-11-20T09:36:48.347Z,96694.11
2018-11-20T09:39:25.228Z,96701.69
2018-11-20T09:42:21.525Z,96695.33
2018-11-20T09:45:54.983Z,96696.23
2018-11-20T09:48:45.591Z,96650.91
2018-11-20T09:51:40.321Z,96706.34
2018-11-20T09:54:29.904Z,96712.78
2018-11-20T09:57:13.934Z,96703.42
2018-11-20T10:00:18.636Z,96704.33
2018-11-20T10:03:17.715Z,96703.18
2018-11-20T10:06:19.218Z,96696.16
2018-11-20T10:09:29.346Z,96673.25
2018-11-20T10:12:26.304Z,96692.03
2018-11-20T10:15:34.791Z,96693.17
2018-11-20T10:18:35.697Z,96693.13
2018-11-20T10:21:44.272Z,96665.25
2018-11-20T10:24:45.306Z,96686.63
2018-11-20T10:27:53.747Z,96684.94
2018-11-20T10:30:54.434Z,96684.94
2018-11-20T10:34:02.960Z,96678.86
2018-11-20T10:37:04.391Z,96672.59
2018-11-20T10:40:13.022Z,96653.88
2018-11-20T10:43:21.471Z,96667.38
2018-11-20T10:46:28.736Z,96649.13
2018-11-20T10:49:37.222Z,96614.08
2018-11-20T10:52:38.953Z,96653.17
2018-11-20T10:55:30.407Z,96653.58
2018-11-20T10:58:38.911Z,96611.91
2018-11-20T11:01:47.435Z,96647.41
2018-11-20T11:04:48.079Z,96641.27
2018-11-20T11:07:56.675Z,96631.58
2018-11-20T11:10:57.774Z,96654.66
2018-11-20T11:14:06.265Z,96659.14
2018-11-20T11:17:10.385Z,96642.27
2018-11-20T11:20:18.891Z,96655.20
2018-11-20T11:23:12.169Z,96669.07
2018-11-20T11:26:20.752Z,96628.06
2018-11-20T11:29:27.943Z,96680.28
2018-11-20T11:32:17.429Z,96681.52
2018-11-20T11:35:18.232Z,96681.09
2018-11-20T11:38:15.895Z,96690.53
2018-11-20T11:41:24.512Z,96683.44
2018-11-20T11:44:25.226Z,96689.84
2018-11-20T11:47:33.797Z,96689.69
2018-11-20T11:50:42.377Z,96688.09
2018-11-20T11:53:38.058Z,96689.77
2018-11-20T11:56:39.422Z,96667.16
2018-11-20T11:59:47.917Z,96674.66
2018-11-20T12:05:48.618Z,96641.98
2018-11-20T12:08:49.859Z,96679.41
2018-11-20T12:11:58.363Z,96670.26
2018-11-20T12:14:59.437Z,96675.42
2018-11-20T12:17:48.922Z,96679.45
2018-11-20T12:20:57.448Z,96682.84
2018-11-20T12:23:46.968Z,96683.36
2018-11-20T12:26:55.491Z,96677.84
2018-11-20T12:29:53.363Z,96637.19
2018-11-20T12:33:02.368Z,96677.94
2018-11-20T12:36:03.207Z,96678.08
2018-11-20T12:39:07.702Z,96643.75
2018-11-20T12:42:08.044Z,96647.75
2018-11-20T12:45:07.743Z,96657.69
2018-11-20T12:48:08.957Z,96655.72
2018-11-20T12:51:19.736Z,96636.72
2018-11-20T12:54:07.935Z,96626.74
2018-11-20T12:56:56.135Z,96651.48
2018-11-20T12:59:44.257Z,96656.50
2018-11-20T13:02:43.420Z,96655.56
2018-11-20T13:05:31.565Z,96652.41
2018-11-20T13:08:31.037Z,96651.70
2018-11-20T13:11:11.755Z,96658.12
2018-11-20T13:13:59.583Z,96665.43
2018-11-20T13:16:58.268Z,96656.81
2018-11-20T13:19:46.270Z,96663.84
2018-11-20T13:22:35.673Z,96663.80
2018-11-20T13:25:22.363Z,96668.26
2018-11-20T13:28:10.510Z,96664.69
2018-11-20T13:30:58.713Z,96698.34
2018-11-20T13:33:51.128Z,96687.76
2018-11-20T13:36:38.899Z,96683.48
2018-11-20T13:39:30.308Z,96681.19
2018-11-20T13:42:43.392Z,96690.03
2018-11-20T13:45:27.548Z,96698.24
2018-11-20T13:48:15.771Z,96700.91
2018-11-20T13:51:05.300Z,96702.97
2018-11-20T13:54:00.592Z,96708.18
2018-11-20T13:56:52.905Z,96716.87
2018-11-20T13:59:42.415Z,96706.09
2018-11-20T14:02:26.588Z,96709.98
2018-11-20T14:05:16.180Z,96714.91
2018-11-20T14:08:21.765Z,96720.68
2018-11-20T14:11:02.717Z,96725.25
2018-11-20T14:13:41.847Z,96729.73
2018-11-20T14:16:37.152Z,96726.91
2018-11-20T14:19:22.370Z,96731.93
2018-11-20T14:21:59.056Z,96737.97
2018-11-20T14:24:46.934Z,96733.17
2018-11-20T14:27:34.481Z,96740.17
2018-11-20T14:30:23.721Z,96738.19
2018-11-20T14:33:12.904Z,96736.98
2018-11-20T14:36:08.224Z,96742.25
2018-11-20T14:38:57.777Z,96746.72
2018-11-20T14:41:45.758Z,96750.42
2018-11-20T14:44:33.921Z,96754.89
2018-11-20T14:47:15.902Z,96753.02
2018-11-20T14:50:02.602Z,96754.89
2018-11-20T14:52:55.141Z,96758.04
2018-11-20T14:55:41.615Z,96757.78
2018-11-20T14:58:17.509Z,96752.88
2018-11-20T15:01:09.298Z,96747.09
2018-11-20T15:04:16.824Z,96745.34
2018-11-20T15:06:54.739Z,96741.45
2018-11-20T15:09:35.085Z,96734.31
2018-11-20T15:12:22.997Z,96731.53
2018-11-20T15:15:11.036Z,96739.39
2018-11-20T15:17:59.408Z,96734.31
2018-11-20T15:20:54.081Z,96721.55
2018-11-20T15:23:46.415Z,96731.53
2018-11-20T15:26:34.491Z,96731.75
2018-11-20T15:29:13.577Z,96718.98
2018-11-20T15:32:01.589Z,96728.02
2018-11-20T15:34:46.091Z,96726.32
2018-11-20T15:37:29.130Z,96732.13
2018-11-20T15:40:20.830Z,96741.45
2018-11-20T15:43:00.419Z,96732.92
2018-11-20T15:45:51.135Z,96739.50
2018-11-20T15:48:52.319Z,96727.23
2018-11-20T15:51:46.244Z,96733.77
2018-11-20T15:54:34.342Z,96751.02
2018-11-20T15:57:22.261Z,96775.00
2018-11-20T16:00:06.293Z,96779.14
2018-11-20T16:02:54.155Z,96762.73
2018-11-20T16:05:42.428Z,96769.59
2018-11-20T16:08:34.809Z,96780.82
2018-11-20T16:11:26.053Z,96782.08
2018-11-20T16:14:14.575Z,96782.03
2018-11-20T16:17:16.533Z,96781.52
2018-11-20T16:19:50.692Z,96776.48
2018-11-20T16:22:38.848Z,96772.69
2018-11-20T16:25:30.722Z,96777.84
2018-11-20T16:28:22.396Z,96782.39
2018-11-20T16:31:30.047Z,96789.56
2018-11-20T16:34:18.237Z,96795.47
2018-11-20T16:37:16.807Z,96811.61
2018-11-20T16:40:10.649Z,96823.83
2018-11-20T16:42:58.699Z,96833.86
2018-11-20T16:46:00.482Z,96828.73
2018-11-20T16:49:05.338Z,96832.39
2018-11-20T16:51:53.252Z,96841.42
2018-11-20T16:54:48.115Z,96844.17
2018-11-20T16:57:36.238Z,96847.63
2018-11-20T17:00:26.566Z,96853.92
2018-11-20T17:03:28.569Z,96852.17
2018-11-20T17:06:18.009Z,96855.55
2018-11-20T17:09:07.523Z,96863.45
2018-11-20T17:11:55.665Z,96872.47
2018-11-20T17:14:35.656Z,96881.28
2018-11-20T17:17:26.395Z,96889.98
2018-11-20T17:20:14.273Z,96887.92
2018-11-20T17:23:09.602Z,96884.55
2018-11-20T17:25:59.108Z,96896.29
2018-11-20T17:28:54.313Z,96884.61
2018-11-20T17:31:46.730Z,96893.99
2018-11-20T17:34:42.074Z,96884.92
2018-11-20T17:37:21.919Z,96895.10
2018-11-20T17:40:21.063Z,96892.02
2018-11-20T17:43:08.561Z,96893.54
2018-11-20T17:46:10.016Z,96899.83
2018-11-20T17:49:02.548Z,96901.59
2018-11-20T17:52:00.491Z,96905.64
2018-11-20T17:55:30.775Z,96905.10
2018-11-20T17:58:14.362Z,96910.91
2018-11-20T18:01:15.035Z,96917.06
2018-11-20T18:04:02.255Z,96919.91
2018-11-20T18:06:51.073Z,96912.26
2018-11-20T18:09:43.046Z,96907.02
2018-11-20T18:12:31.094Z,96903.72
2018-11-20T18:15:19.263Z,96898.89
2018-11-20T18:18:08.168Z,96904.30
2018-11-20T18:20:55.097Z,96904.83
2018-11-20T18:23:48.614Z,96903.24
2018-11-20T18:26:35.561Z,96903.03
2018-11-20T18:29:22.782Z,96904.93
2018-11-20T18:32:13.416Z,96905.76
2018-11-20T18:35:00.006Z,96903.73
2018-11-20T18:38:03.390Z,96898.11
2018-11-20T18:40:54.621Z,96904.86
2018-11-20T18:43:44.265Z,96900.41
2018-11-20T18:46:51.958Z,96908.16
2018-11-20T18:49:52.153Z,96921.34
2018-11-20T18:55:00.693Z,96917.92
2018-11-20T18:57:55.128Z,96921.95
2018-11-20T19:00:48.640Z,96930.80
2018-11-20T19:03:41.221Z,96933.52
2018-11-20T19:06:44.316Z,96938.45
2018-11-20T19:09:52.082Z,96937.66
2018-11-20T19:12:52.353Z,96940.14
2018-11-20T19:16:00.228Z,96942.33
2018-11-20T19:19:00.700Z,96919.91
2018-11-20T19:22:09.070Z,96953.96
2018-11-20T19:25:09.920Z,96925.02
2018-11-20T19:28:17.599Z,96960.05
2018-11-20T19:31:22.436Z,96926.81
2018-11-20T19:34:31.160Z,96946.47
2018-11-20T19:37:31.650Z,96979.06
2018-11-20T19:40:39.386Z,96973.34
2018-11-20T19:43:45.633Z,96977.17
2018-11-20T19:47:15.213Z,96979.63
2018-11-20T19:53:12.750Z,96986.23
2018-11-20T19:56:20.520Z,96990.19
2018-11-20T19:59:21.152Z,96998.91
2018-11-20T20:02:36.600Z,97001.87
2018-11-20T20:05:36.515Z,96968.94
2018-11-20T20:08:44.350Z,96999.54
2018-11-20T20:11:32.913Z,97010.12
2018-11-20T20:18:07.605Z,97018.01
2018-11-20T20:21:05.196Z,97010.48
2018-11-20T20:23:47.605Z,97007.81
2018-11-20T20:26:35.410Z,97009.59
2018-11-20T20:32:31.198Z,97006.36
2018-11-20T20:35:22.861Z,97016.10
2018-11-20T20:38:29.653Z,97012.62
2018-11-20T20:41:21.934Z,97013.26
2018-11-20T20:44:10.032Z,97005.13
2018-11-20T20:47:08.430Z,97012.13
2018-11-20T20:50:03.128Z,97017.49
2018-11-20T20:52:57.682Z,97021.50
2018-11-20T20:55:55.473Z,97024.36
2018-11-20T20:58:46.124Z,97014.73
2018-11-20T21:01:32.475Z,97021.91
2018-11-20T21:04:15.066Z,97026.39
2018-11-20T21:07:32.443Z,97024.34
2018-11-20T21:10:18.918Z,97027.27
2018-11-20T21:13:05.593Z,97019.37
2018-11-20T21:15:54.316Z,97038.52
2018-11-20T21:18:54.856Z,97039.86
2018-11-20T21:22:08.527Z,97037.42
2018-11-20T21:25:02.860Z,97037.42
2018-11-20T21:28:00.335Z,97033.42
2018-11-20T21:30:47.460Z,97029.86
2018-11-20T21:33:52.051Z,97028.25
2018-11-20T21:36:40.647Z,97029.04
2018-11-20T21:39:33.411Z,97028.23
2018-11-20T21:42:31.667Z,97033.92
2018-11-20T21:45:22.175Z,97040.54
2018-11-20T21:48:16.819Z,97047.73
2018-11-20T21:51:08.322Z,97048.94
2018-11-20T21:53:53.917Z,97043.89
2018-11-20T21:56:42.293Z,97044.47
2018-11-20T21:59:48.447Z,97044.61
2018-11-20T22:02:38.033Z,97040.78
2018-11-20T22:05:20.465Z,97038.34
2018-11-20T22:08:15.423Z,97030.52
2018-11-20T22:11:08.732Z,97014.31
2018-11-20T22:14:08.358Z,97011.13
2018-11-20T22:16:55.442Z,97014.90
2018-11-20T22:20:06.799Z,97036.30
2018-11-20T22:23:08.690Z,97052.81
2018-11-20T22:25:55.543Z,97078.02
2018-11-20T22:28:42.307Z,97090.66
2018-11-20T22:31:29.005Z,97096.05
2018-11-20T22:34:25.245Z,97097.64
2018-11-20T22:37:38.831Z,97097.59
2018-11-20T22:40:27.947Z,97113.02
2018-11-20T22:43:22.223Z,97107.93
2018-11-20T22:46:14.430Z,97104.80
2018-11-20T22:49:06.497Z,97103.00
2018-11-20T22:51:53.684Z,97096.30
2018-11-20T22:54:53.552Z,97090.40
2018-11-20T22:58:05.530Z,97094.87
2018-11-20T23:00:52.089Z,97083.88
2018-11-20T23:03:39.746Z,97074.91
2018-11-20T23:06:39.814Z,97077.41
2018-11-20T23:09:13.180Z,97073.67
2018-11-20T23:11:42.594Z,97076.08
2018-11-20T23:14:16.080Z,97078.48
2018-11-20T23:16:46.133Z,97080.20
2018-11-20T23:19:15.702Z,97076.89
2018-11-20T23:21:45.204Z,97067.50
2018-11-20T23:24:15.965Z,97066.03
2018-11-20T23:26:46.106Z,97057.68
2018-11-20T23:29:15.719Z,97055.12
2018-11-20T23:31:49.352Z,97051.97
2018-11-20T23:34:18.864Z,97053.48
2018-11-20T23:36:48.626Z,97053.47
2018-11-20T23:39:18.303Z,97052.67
2018-11-20T23:41:47.711Z,97052.41
2018-11-20T23:44:17.126Z,97051.16
2018-11-20T23:46:46.769Z,97059.19
2018-11-20T23:49:16.345Z,97060.23
2018-11-20T23:51:45.728Z,97057.24
2018-11-20T23:54:15.440Z,97056.87
2018-11-20T23:56:44.870Z,97058.61
2018-11-20T23:59:14.562Z,97056.31
